Time;durP1;ratioP1;P1;durP2;ratioP2;P2;SDS_P1;SDS_P2;PMS_P1;PMS_P2;Temp;Humidity;BMP_temperature;BMP_pressure;BME280_temperature;BME280_humidity;BME280_pressure;Samples;Min_cycle;Max_cycle;Signal;HPM_P1;HPM_P2
2022/07/31 00:00:59;;;;;;;9.55;3.42;;;;;;;18.98;99.97;99983.66;5589573;31;33606;-71
2022/07/31 00:04:03;;;;;;;5.22;3.53;;;;;;;18.90;100.00;99985.84;5590555;31;35496;-70
2022/07/31 00:07:05;;;;;;;3.95;3.55;;;;;;;18.66;100.00;99983.13;5590359;31;34883;-70
2022/07/31 00:10:09;;;;;;;4.53;3.33;;;;;;;18.53;100.00;99980.66;5590342;31;35542;-70
2022/07/31 00:13:11;;;;;;;6.82;3.78;;;;;;;18.60;100.00;99984.03;5589438;31;33189;-70
2022/07/31 00:16:14;;;;;;;4.55;3.65;;;;;;;18.62;99.94;99965.00;5589677;31;34187;-70
2022/07/31 00:19:18;;;;;;;5.35;3.90;;;;;;;18.54;100.00;99962.66;5589608;31;32705;-70
2022/07/31 00:22:21;;;;;;;3.80;3.40;;;;;;;18.55;100.00;99969.66;5590266;31;34739;-69
2022/07/31 00:25:24;;;;;;;4.07;3.60;;;;;;;18.70;97.65;99966.53;5589406;31;32812;-70
2022/07/31 00:28:27;;;;;;;4.70;4.03;;;;;;;18.67;97.53;99967.84;5590249;31;34979;-70
2022/07/31 00:31:30;;;;;;;4.97;3.80;;;;;;;18.75;94.40;99967.50;5590269;31;34275;-68
2022/07/31 00:34:32;;;;;;;5.22;3.80;;;;;;;18.77;92.87;99965.41;5590600;31;34213;-70
2022/07/31 00:37:36;;;;;;;6.60;3.70;;;;;;;18.82;92.09;99973.59;5590007;31;34906;-70
2022/07/31 00:40:46;;;;;;;7.15;3.80;;;;;;;18.90;91.65;99983.16;5590047;31;34169;-71
2022/07/31 00:43:49;;;;;;;4.65;4.00;;;;;;;18.90;90.86;99975.09;5590528;31;34810;-69
2022/07/31 00:46:52;;;;;;;5.78;3.78;;;;;;;18.86;90.37;99984.69;5590093;31;34311;-70
2022/07/31 00:49:55;;;;;;;5.07;4.07;;;;;;;18.90;91.41;99994.75;5590310;31;34267;-71
2022/07/31 00:52:58;;;;;;;4.87;3.80;;;;;;;18.82;91.89;99989.72;5588253;31;34752;-71
2022/07/31 00:56:00;;;;;;;6.25;3.72;;;;;;;18.81;91.69;99989.94;5590077;31;34193;-69
2022/07/31 00:59:03;;;;;;;5.12;3.70;;;;;;;18.84;91.13;99981.41;5589971;31;34556;-69
2022/07/31 01:02:09;;;;;;;4.15;3.40;;;;;;;18.82;91.39;99986.22;5589959;31;34271;-71
2022/07/31 01:05:12;;;;;;;4.78;3.65;;;;;;;18.80;90.62;99986.44;5589810;31;34269;-69
2022/07/31 01:08:14;;;;;;;4.72;3.20;;;;;;;18.86;90.15;99987.38;5589147;31;34153;-69
2022/07/31 01:11:35;;;;;;;4.10;3.47;;;;;;;18.93;90.26;99990.75;5589920;31;35375;-69
2022/07/31 01:14:46;;;;;;;4.93;3.25;;;;;;;18.88;89.86;99993.34;5589948;31;34191;-70
2022/07/31 01:17:51;;;;;;;4.50;3.40;;;;;;;18.95;89.71;99989.50;5589968;31;34213;-69
2022/07/31 01:20:57;;;;;;;5.20;3.00;;;;;;;18.98;89.12;99994.41;5589973;31;34833;-70
2022/07/31 01:24:28;;;;;;;3.05;2.65;;;;;;;19.03;88.90;99991.84;5589346;31;32837;-70
2022/07/31 01:27:51;;;;;;;3.42;2.55;;;;;;;18.97;87.81;99990.09;5589785;31;35550;-70
2022/07/31 01:30:59;;;;;;;2.37;2.17;;;;;;;18.86;88.81;99995.44;5588977;31;34117;-70
2022/07/31 01:34:53;;;;;;;2.53;2.33;;;;;;;18.88;87.90;99993.34;5589855;31;34225;-70
2022/07/31 01:38:00;;;;;;;3.45;2.40;;;;;;;18.98;87.23;99996.25;5585409;31;34983;-69
2022/07/31 01:41:07;;;;;;;4.53;2.53;;;;;;;18.96;87.47;100014.50;5589559;31;34866;-67
2022/07/31 01:44:14;;;;;;;1.95;1.70;;;;;;;18.89;87.38;100005.72;5589811;31;34199;-68
2022/07/31 01:47:20;;;;;;;2.95;1.80;;;;;;;18.89;87.09;100000.34;5589614;31;34312;-68
2022/07/31 01:50:25;;;;;;;2.20;2.00;;;;;;;18.85;86.96;100000.00;5588979;31;33900;-70
2022/07/31 01:53:47;;;;;;;2.55;2.00;;;;;;;18.80;87.32;99996.34;5589592;31;34843;-71
2022/07/31 01:56:52;;;;;;;2.25;1.75;;;;;;;18.84;88.23;99997.53;5589958;31;35443;-68
2022/07/31 02:00:00;;;;;;;3.25;1.75;;;;;;;18.89;86.42;99998.47;5589818;31;34150;-69
2022/07/31 02:03:05;;;;;;;4.65;1.58;;;;;;;18.82;87.03;99992.41;5589678;31;34301;-69
2022/07/31 02:06:14;;;;;;;1.73;1.62;;;;;;;18.88;85.90;99996.03;5589274;31;34058;-70
2022/07/31 02:09:19;;;;;;;1.40;1.30;;;;;;;18.77;86.92;99986.06;5589479;31;34894;-66
2022/07/31 02:12:24;;;;;;;2.92;1.50;;;;;;;18.78;85.92;99991.22;5589350;31;34887;-71
2022/07/31 02:15:36;;;;;;;1.75;1.40;;;;;;;18.78;86.98;99988.53;5589842;31;34896;-69
2022/07/31 02:18:41;;;;;;;1.58;1.48;;;;;;;18.75;86.43;99997.03;5589797;31;35452;-70
2022/07/31 02:21:44;;;;;;;4.00;1.40;;;;;;;18.85;86.57;99985.72;5589283;31;35024;-70
2022/07/31 02:24:47;;;;;;;1.42;1.30;;;;;;;18.85;86.67;99983.03;5589290;31;34949;-70
2022/07/31 02:27:50;;;;;;;1.45;1.35;;;;;;;18.84;85.79;99976.03;5589170;31;34246;-69
2022/07/31 02:31:01;;;;;;;1.37;1.27;;;;;;;18.78;85.87;99980.47;5588847;31;34140;-70
2022/07/31 02:34:04;;;;;;;2.03;1.12;;;;;;;18.70;86.49;99971.91;5589683;31;34167;-68
2022/07/31 02:37:08;;;;;;;1.50;1.10;;;;;;;18.76;85.76;99974.50;5589546;31;34831;-70
2022/07/31 02:40:12;;;;;;;1.83;1.27;;;;;;;18.63;85.64;99972.84;5588912;31;34255;-68
2022/07/31 02:43:16;;;;;;;1.15;1.00;;;;;;;18.59;87.11;99970.81;5589022;31;34613;-68
2022/07/31 02:46:19;;;;;;;3.08;1.60;;;;;;;18.55;85.73;99969.66;5588439;31;32805;-68
2022/07/31 02:49:24;;;;;;;2.05;1.30;;;;;;;18.55;86.15;99977.72;5589010;31;34323;-67
2022/07/31 02:52:27;;;;;;;3.37;1.45;;;;;;;18.47;85.81;99969.97;5588850;31;35543;-67
2022/07/31 02:55:32;;;;;;;2.75;1.30;;;;;;;18.43;85.64;99974.97;5588922;31;34188;-70
2022/07/31 02:58:40;;;;;;;4.30;1.60;;;;;;;18.43;86.08;99979.53;5589228;31;34262;-69
2022/07/31 03:01:44;;;;;;;1.60;1.25;;;;;;;18.49;85.67;99979.41;5589145;31;35493;-70
2022/07/31 03:04:47;;;;;;;1.40;1.30;;;;;;;18.43;85.54;99966.09;5588784;31;34260;-70
2022/07/31 03:07:50;;;;;;;1.40;1.30;;;;;;;18.50;86.35;99975.69;5588634;31;34238;-67
2022/07/31 03:10:53;;;;;;;2.58;1.52;;;;;;;18.37;85.60;99973.19;5588884;31;34681;-69
2022/07/31 03:14:00;;;;;;;3.12;1.67;;;;;;;18.36;86.13;99968.88;5589188;31;34235;-65
2022/07/31 03:17:05;;;;;;;4.78;1.50;;;;;;;18.35;85.91;99977.97;5589419;31;34169;-69
2022/07/31 03:20:10;;;;;;;3.75;1.52;;;;;;;18.38;86.55;99966.78;5591065;31;34241;-70
2022/07/31 03:23:13;;;;;;;1.58;1.35;;;;;;;18.36;86.46;99973.41;5591233;31;34183;-69
2022/07/31 03:26:18;;;;;;;2.08;1.67;;;;;;;18.37;86.37;99975.88;5591042;31;35433;-70
2022/07/31 03:29:21;;;;;;;2.45;1.70;;;;;;;18.31;86.46;99966.03;5590332;31;35690;-67
2022/07/31 03:32:44;;;;;;;1.80;1.58;;;;;;;18.34;86.32;99965.59;5591121;31;34377;-69
2022/07/31 03:35:48;;;;;;;2.45;1.65;;;;;;;18.37;85.63;99975.88;5590776;31;34997;-68
2022/07/31 03:38:51;;;;;;;3.20;1.60;;;;;;;18.35;86.71;99958.38;5590640;31;35566;-68
2022/07/31 03:41:56;;;;;;;1.90;1.70;;;;;;;18.41;86.29;99970.87;5590746;31;34243;-70
2022/07/31 03:45:00;;;;;;;1.70;1.60;;;;;;;18.39;85.82;99959.56;5589678;31;33673;-68
2022/07/31 03:48:03;;;;;;;1.52;1.30;;;;;;;18.47;85.90;99969.97;5589834;31;32991;-69
2022/07/31 03:51:07;;;;;;;1.85;1.65;;;;;;;18.48;84.84;99972.44;5590888;31;34856;-69
2022/07/31 03:54:10;;;;;;;1.67;1.55;;;;;;;18.49;85.27;99968.66;5591142;31;34860;-69
2022/07/31 03:57:15;;;;;;;2.67;1.70;;;;;;;18.48;84.93;99980.47;5590923;31;34255;-67
2022/07/31 04:00:25;;;;;;;2.22;1.62;;;;;;;18.56;84.42;99965.94;5589830;31;34898;-67
2022/07/31 04:03:31;;;;;;;2.28;1.60;;;;;;;18.46;84.81;99971.00;5590681;31;34354;-70
2022/07/31 04:06:39;;;;;;;2.60;1.60;;;;;;;18.36;85.07;99968.88;5590506;31;34192;-70
2022/07/31 04:09:42;;;;;;;2.30;1.65;;;;;;;18.46;85.48;99974.50;5590460;31;34225;-70
2022/07/31 04:12:45;;;;;;;2.55;1.92;;;;;;;18.35;85.93;99972.59;5590941;31;34308;-69
2022/07/31 04:15:48;;;;;;;2.47;1.80;;;;;;;18.39;85.03;99984.53;5590731;31;34346;-69
2022/07/31 04:18:50;;;;;;;2.80;2.10;;;;;;;18.33;85.77;99977.38;5590433;31;34154;-67
2022/07/31 04:21:53;;;;;;;2.28;1.70;;;;;;;18.38;86.48;99977.53;5590312;31;34244;-69
2022/07/31 04:24:56;;;;;;;2.40;2.15;;;;;;;18.33;86.08;99984.63;5590247;31;34288;-69
2022/07/31 04:28:00;;;;;;;5.68;2.28;;;;;;;18.34;85.89;99995.16;5590192;31;34984;-69
2022/07/31 04:31:03;;;;;;;2.28;2.05;;;;;;;18.33;85.75;99987.31;5590278;31;34249;-68
2022/07/31 04:34:06;;;;;;;2.15;1.90;;;;;;;18.33;87.04;99988.13;5590286;31;34294;-69
2022/07/31 04:37:08;;;;;;;2.47;2.00;;;;;;;18.28;86.14;99982.62;5589299;31;32912;-70
2022/07/31 04:40:11;;;;;;;3.05;2.28;;;;;;;18.25;86.27;99991.94;5589923;31;34904;-71
2022/07/31 04:43:15;;;;;;;3.47;2.00;;;;;;;18.22;86.50;99978.97;5590167;31;34372;-68
2022/07/31 04:46:19;;;;;;;3.85;1.90;;;;;;;18.22;86.38;99978.16;5590202;31;34289;-70
2022/07/31 04:49:21;;;;;;;2.25;1.85;;;;;;;18.20;86.45;99981.06;5590243;31;34941;-67
2022/07/31 04:52:24;;;;;;;2.65;1.75;;;;;;;18.21;87.06;99977.34;5589168;31;34125;-70
2022/07/31 04:55:27;;;;;;;2.00;1.70;;;;;;;18.24;87.12;99979.59;5590533;31;34194;-68
2022/07/31 04:58:31;;;;;;;1.90;1.62;;;;;;;18.17;88.11;99981.53;5590459;31;34918;-69
2022/07/31 05:01:34;;;;;;;2.05;1.67;;;;;;;18.01;88.60;99965.22;5589284;31;34352;-68
2022/07/31 05:04:37;;;;;;;2.35;1.70;;;;;;;17.91;89.63;99981.06;5576342;31;33176;-67
2022/07/31 05:07:39;;;;;;;1.87;1.70;;;;;;;17.90;90.07;99987.44;5589943;31;34831;-68
2022/07/31 05:14:07;;;;;;;4.32;2.10;;;;;;;17.58;95.77;99989.41;5590099;31;34254;-72
2022/07/31 05:17:09;;;;;;;2.67;2.47;;;;;;;17.05;100.00;99999.81;5589921;31;34842;-72
2022/07/31 05:20:13;;;;;;;5.25;3.05;;;;;;;16.49;100.00;99997.94;5590045;31;34192;-72
2022/07/31 05:23:16;;;;;;;3.97;3.20;;;;;;;16.21;100.00;100005.50;5589885;31;34217;-74
2022/07/31 05:26:19;;;;;;;3.30;3.00;;;;;;;16.09;100.00;100002.66;5588645;31;34196;-71
2022/07/31 05:29:22;;;;;;;3.90;3.10;;;;;;;15.97;100.00;99997.19;5589691;31;34219;-71
2022/07/31 05:32:25;;;;;;;5.57;3.62;;;;;;;15.88;100.00;100003.78;5589941;31;34302;-71
2022/07/31 05:35:28;;;;;;;4.20;3.80;;;;;;;15.82;100.00;99999.28;5589010;31;34305;-72
2022/07/31 05:38:31;;;;;;;4.15;3.75;;;;;;;15.82;100.00;99993.94;5589628;31;34175;-72
2022/07/31 05:41:35;;;;;;;5.00;3.80;;;;;;;15.80;100.00;100001.34;5589201;31;34921;-70
2022/07/31 05:44:38;;;;;;;4.00;3.55;;;;;;;15.76;100.00;99991.28;5588335;31;32849;-71
2022/07/31 05:47:40;;;;;;;4.00;3.50;;;;;;;15.90;100.00;100001.72;5588755;31;32711;-72
2022/07/31 05:50:44;;;;;;;5.10;3.65;;;;;;;15.90;100.00;99998.22;5589549;31;34094;-69
2022/07/31 05:53:48;;;;;;;4.45;3.20;;;;;;;15.82;100.00;99990.44;5589598;31;34116;-72
2022/07/31 05:56:52;;;;;;;4.37;3.42;;;;;;;15.92;100.00;99994.31;5589890;31;34331;-70
2022/07/31 05:59:55;;;;;;;4.45;3.47;;;;;;;15.93;100.00;99992.44;5589560;31;34288;-74
2022/07/31 06:02:58;;;;;;;6.18;3.67;;;;;;;15.91;100.00;99992.66;5589524;31;34495;-73
2022/07/31 06:06:04;;;;;;;5.22;3.72;;;;;;;15.92;100.00;99985.47;5588480;31;32511;-74
2022/07/31 06:09:07;;;;;;;4.37;3.87;;;;;;;15.85;100.00;100001.53;5589910;31;33723;-72
2022/07/31 06:12:10;;;;;;;4.50;3.95;;;;;;;15.75;100.00;99998.47;5589413;31;34107;-70
2022/07/31 06:15:12;;;;;;;4.35;3.92;;;;;;;15.77;100.00;99998.28;5589440;31;34599;-72
2022/07/31 06:18:15;;;;;;;5.65;4.45;;;;;;;15.67;100.00;99987.19;5589763;31;34233;-72
2022/07/31 06:21:18;;;;;;;6.93;4.32;;;;;;;15.69;100.00;99991.28;5588601;31;33636;-72
2022/07/31 06:24:20;;;;;;;4.85;4.35;;;;;;;15.72;100.00;99987.38;5589316;31;34667;-72
2022/07/31 06:27:22;;;;;;;4.32;3.78;;;;;;;15.81;100.00;99989.62;5589638;31;34264;-70
2022/07/31 06:30:35;;;;;;;6.32;4.03;;;;;;;15.79;100.00;99989.00;5589214;31;34966;-73
2022/07/31 06:33:37;;;;;;;7.50;3.97;;;;;;;15.84;100.00;99999.06;5589430;31;35039;-70
2022/07/31 06:36:41;;;;;;;4.22;3.80;;;;;;;15.82;100.00;100001.97;5589086;31;34929;-71
2022/07/31 06:39:49;;;;;;;4.30;3.90;;;;;;;15.91;100.00;99999.88;5588157;31;34242;-70
2022/07/31 06:43:00;;;;;;;6.25;3.90;;;;;;;15.97;100.00;99997.19;5589078;31;34519;-72
2022/07/31 06:46:13;;;;;;;5.37;3.97;;;;;;;15.99;100.00;99996.94;5589096;31;34153;-68
2022/07/31 06:49:22;;;;;;;4.28;3.60;;;;;;;16.08;100.00;99998.34;5588265;31;33260;-71
2022/07/31 06:52:24;;;;;;;4.20;3.80;;;;;;;16.26;100.00;100014.56;5586258;31;32876;-71
2022/07/31 06:55:27;;;;;;;6.72;3.80;;;;;;;16.44;100.00;100003.94;5587999;31;34875;-71
2022/07/31 06:58:30;;;;;;;4.28;3.40;;;;;;;16.45;100.00;100000.22;5588748;31;34319;-71
2022/07/31 07:01:34;;;;;;;5.12;3.20;;;;;;;16.55;100.00;100001.62;5588805;31;34694;-70
2022/07/31 07:04:37;;;;;;;6.72;3.20;;;;;;;16.75;100.00;100005.03;5589147;31;34270;-70
2022/07/31 07:07:59;;;;;;;6.55;3.42;;;;;;;16.87;100.00;100000.59;5588582;31;34833;-71
2022/07/31 07:11:02;;;;;;;6.50;3.33;;;;;;;16.93;100.00;99991.69;5588590;31;34183;-71
2022/07/31 07:14:05;;;;;;;5.15;2.97;;;;;;;17.00;100.00;99991.63;5588427;31;34584;-70
2022/07/31 07:17:08;;;;;;;4.00;3.10;;;;;;;16.77;100.00;99985.00;5587228;31;34306;-71
2022/07/31 07:20:12;;;;;;;4.47;2.85;;;;;;;16.68;100.00;99986.31;5588732;31;34380;-71
2022/07/31 07:23:15;;;;;;;4.85;2.60;;;;;;;16.77;100.00;99993.03;5588674;31;34407;-70
2022/07/31 07:26:21;;;;;;;5.70;2.67;;;;;;;16.85;100.00;99979.38;5588739;31;34498;-69
2022/07/31 07:29:24;;;;;;;5.53;2.60;;;;;;;16.88;100.00;99968.22;5588378;31;34647;-72
2022/07/31 07:32:27;;;;;;;3.37;2.40;;;;;;;17.11;100.00;99988.22;5588336;31;34206;-71
2022/07/31 07:35:30;;;;;;;3.37;2.37;;;;;;;17.19;100.00;99985.25;5587418;31;34450;-67
2022/07/31 07:38:37;;;;;;;3.12;2.25;;;;;;;17.43;100.00;99978.25;5588018;31;34265;-70
2022/07/31 07:41:40;;;;;;;3.55;2.30;;;;;;;18.02;100.00;99981.09;5587255;31;34913;-72
2022/07/31 07:44:43;;;;;;;3.45;1.83;;;;;;;19.28;96.37;99986.25;5573941;31;33185;-70
2022/07/31 07:47:46;;;;;;;3.00;1.62;;;;;;;19.39;92.59;99981.91;5588390;31;34277;-68
2022/07/31 07:51:09;;;;;;;2.50;1.75;;;;;;;19.48;91.42;99980.53;5587005;31;32566;-69
2022/07/31 07:54:14;;;;;;;2.20;1.70;;;;;;;18.91;94.90;99985.63;5587306;31;34328;-71
2022/07/31 07:57:20;;;;;;;1.85;1.48;;;;;;;19.76;92.52;99994.06;5586956;31;33353;-70
2022/07/31 08:00:26;;;;;;;2.60;1.75;;;;;;;19.06;90.00;99986.00;5587564;31;34371;-66
2022/07/31 08:03:29;;;;;;;3.25;1.70;;;;;;;19.17;94.08;100005.06;5588780;31;34170;-67
2022/07/31 08:06:51;;;;;;;4.12;1.80;;;;;;;19.05;94.45;100013.94;5590725;31;34225;-70
2022/07/31 08:09:58;;;;;;;2.28;1.90;;;;;;;19.14;92.97;100010.91;5576538;31;33641;-68
2022/07/31 08:13:01;;;;;;;1.87;1.35;;;;;;;19.47;88.28;100005.78;5589863;31;34749;-69
2022/07/31 08:16:06;;;;;;;2.40;1.73;;;;;;;19.96;89.35;100004.44;5590509;31;32614;-70
2022/07/31 08:19:09;;;;;;;2.75;1.80;;;;;;;19.66;87.17;100017.25;5589642;31;32568;-68
2022/07/31 08:22:12;;;;;;;2.33;1.52;;;;;;;19.66;88.13;100022.63;5589709;31;34274;-69
2022/07/31 08:25:15;;;;;;;1.55;1.42;;;;;;;19.31;89.14;100022.63;5589121;31;34264;-67
2022/07/31 08:28:19;;;;;;;2.72;1.65;;;;;;;19.00;90.53;100029.12;5589959;31;34590;-70
2022/07/31 08:31:25;;;;;;;2.97;1.70;;;;;;;19.05;91.45;100032.75;5590144;31;34851;-70
2022/07/31 08:34:30;;;;;;;2.20;1.60;;;;;;;18.58;92.42;100037.19;5590205;31;34925;-70
2022/07/31 08:37:34;;;;;;;3.15;1.87;;;;;;;18.68;91.84;100047.41;5589947;31;34229;-70
2022/07/31 08:40:56;;;;;;;3.50;1.50;;;;;;;18.71;91.37;100033.50;5589294;31;33795;-69
2022/07/31 08:44:00;;;;;;;2.20;1.50;;;;;;;19.56;85.87;100044.75;5590028;31;35492;-68
2022/07/31 08:47:11;;;;;;;2.12;1.37;;;;;;;20.03;82.89;100039.31;5589872;31;34109;-69
2022/07/31 08:50:16;;;;;;;1.30;1.17;;;;;;;20.23;81.16;100031.66;5589178;31;34450;-68
2022/07/31 08:53:21;;;;;;;3.22;1.10;;;;;;;19.75;82.37;100027.41;5589219;31;34162;-67
2022/07/31 08:56:25;;;;;;;1.98;1.37;;;;;;;19.64;83.50;100030.13;5590370;31;34532;-70
2022/07/31 08:59:29;;;;;;;4.22;1.23;;;;;;;19.41;84.45;100036.31;5589892;31;34843;-70
2022/07/31 09:02:32;;;;;;;1.23;0.95;;;;;;;19.49;81.90;100038.69;5589665;31;34332;-69
2022/07/31 09:05:38;;;;;;;1.85;1.00;;;;;;;19.58;80.42;100042.66;5589097;31;34806;-68
2022/07/31 09:08:45;;;;;;;2.37;1.40;;;;;;;19.48;80.83;100043.25;5589031;31;33539;-69
2022/07/31 09:11:49;;;;;;;2.17;1.10;;;;;;;20.06;79.50;100052.31;5589797;31;34310;-70
2022/07/31 09:14:54;;;;;;;1.62;0.90;;;;;;;19.99;78.39;100048.94;5589115;31;35526;-66
2022/07/31 09:17:57;;;;;;;1.98;1.02;;;;;;;19.73;78.23;100059.16;5589580;31;35262;-67
2022/07/31 09:21:05;;;;;;;2.47;1.00;;;;;;;19.57;77.70;100073.31;5589764;31;35474;-69
2022/07/31 09:24:12;;;;;;;1.35;0.98;;;;;;;20.04;76.76;100068.72;5589859;31;34519;-71
2022/07/31 09:27:16;;;;;;;1.40;0.80;;;;;;;20.37;76.40;100085.06;5589003;31;33239;-70
2022/07/31 09:30:19;;;;;;;1.10;1.00;;;;;;;19.88;77.80;100090.97;5589631;31;34923;-67
2022/07/31 09:33:28;;;;;;;3.37;0.98;;;;;;;19.35;79.01;100070.34;5589781;31;34233;-67
2022/07/31 09:36:32;;;;;;;1.67;1.10;;;;;;;19.70;77.95;100097.31;5588976;31;34671;-69
2022/07/31 09:39:36;;;;;;;2.15;1.10;;;;;;;19.52;79.06;100097.41;5589804;31;34903;-68
2022/07/31 09:42:54;;;;;;;1.37;1.08;;;;;;;19.40;79.76;100089.28;5588944;31;34119;-68
2022/07/31 09:46:01;;;;;;;1.55;1.00;;;;;;;20.31;76.43;100088.72;5588787;31;32927;-68
2022/07/31 09:49:05;;;;;;;1.37;1.08;;;;;;;20.78;72.57;100083.12;5588648;31;32793;-67
2022/07/31 09:52:18;;;;;;;1.60;1.00;;;;;;;20.29;74.64;100092.66;5589312;31;34839;-70
2022/07/31 09:55:21;;;;;;;3.10;0.95;;;;;;;20.49;74.50;100076.09;5589364;31;34619;-65
2022/07/31 09:58:24;;;;;;;0.95;0.80;;;;;;;20.32;74.18;100087.66;5588573;31;33491;-67
2022/07/31 10:01:29;;;;;;;2.08;1.10;;;;;;;20.26;74.21;100080.50;5589853;31;34865;-68
2022/07/31 10:04:34;;;;;;;2.05;1.10;;;;;;;20.17;74.68;100084.63;5588534;31;34801;-66
2022/07/31 10:07:37;;;;;;;2.15;0.85;;;;;;;20.28;75.05;100094.53;5589671;31;34360;-66
2022/07/31 10:10:45;;;;;;;1.15;0.70;;;;;;;20.22;73.83;100095.50;5589384;31;34353;-68
2022/07/31 10:13:55;;;;;;;1.10;1.00;;;;;;;20.60;72.57;100111.13;5588457;31;32929;-67
2022/07/31 10:17:03;;;;;;;1.00;0.82;;;;;;;20.20;73.87;100113.75;5588833;31;33668;-66
2022/07/31 10:20:13;;;;;;;4.12;1.00;;;;;;;20.11;73.49;100096.31;5589309;31;34872;-69
2022/07/31 10:23:21;;;;;;;2.60;1.27;;;;;;;20.58;73.07;100107.00;5589143;31;34958;-70
2022/07/31 10:26:24;;;;;;;1.55;1.00;;;;;;;20.93;72.61;100090.69;5588934;31;34823;-68
2022/07/31 10:29:48;;;;;;;4.05;1.20;;;;;;;21.09;70.75;100089.91;5588102;31;33526;-66
2022/07/31 10:32:51;;;;;;;1.73;1.10;;;;;;;20.54;73.27;100087.00;5588662;31;35395;-68
2022/07/31 10:36:05;;;;;;;1.55;1.10;;;;;;;19.93;75.24;100101.84;5589081;31;32720;-69
2022/07/31 10:39:19;;;;;;;3.08;1.40;;;;;;;19.36;79.35;100090.00;5588859;31;34298;-67
2022/07/31 10:42:44;;;;;;;3.05;1.15;;;;;;;19.71;78.12;100087.34;5588353;31;33360;-68
2022/07/31 10:45:49;;;;;;;1.37;1.20;;;;;;;19.94;78.21;100085.44;5589428;31;34193;-70
2022/07/31 10:48:52;;;;;;;1.92;1.30;;;;;;;21.80;69.37;100082.97;5589474;31;34289;-69
2022/07/31 10:51:58;;;;;;;4.07;1.00;;;;;;;22.92;64.50;100105.78;5588854;31;34301;-69
2022/07/31 10:55:24;;;;;;;1.52;1.00;;;;;;;22.92;63.81;100084.13;5588315;31;34170;-70
2022/07/31 10:58:28;;;;;;;2.50;1.00;;;;;;;22.17;65.51;100092.19;5588367;31;32696;-68
2022/07/31 11:01:31;;;;;;;2.20;1.00;;;;;;;21.39;68.53;100095.03;5589221;31;34519;-70
2022/07/31 11:04:35;;;;;;;2.28;1.10;;;;;;;20.96;70.85;100107.19;5588787;31;34219;-68
2022/07/31 11:07:44;;;;;;;3.62;1.20;;;;;;;20.32;75.17;100111.09;5589139;31;34072;-67
2022/07/31 11:10:52;;;;;;;2.00;1.27;;;;;;;20.27;74.96;100119.84;5588037;31;33000;-66
2022/07/31 11:13:55;;;;;;;2.85;1.23;;;;;;;20.15;74.87;100100.19;5588597;31;34641;-68
2022/07/31 11:17:00;;;;;;;2.20;1.17;;;;;;;20.54;73.05;100114.75;5588214;31;34304;-69
2022/07/31 11:20:23;;;;;;;1.92;1.17;;;;;;;20.61;73.28;100126.25;5587021;31;34699;-69
2022/07/31 11:23:29;;;;;;;2.65;1.25;;;;;;;20.00;74.07;100137.53;5585304;31;34232;-68
2022/07/31 11:26:32;;;;;;;2.70;1.20;;;;;;;19.92;74.84;100136.03;5588386;31;34109;-69
2022/07/31 11:29:48;;;;;;;4.32;1.67;;;;;;;20.32;74.19;100130.75;5588772;31;34254;-67
2022/07/31 11:33:05;;;;;;;2.25;1.42;;;;;;;20.23;73.99;100140.25;5587790;31;35413;-68
2022/07/31 11:36:08;;;;;;;5.78;1.73;;;;;;;20.66;73.30;100129.03;5588141;31;35001;-68
2022/07/31 11:39:12;;;;;;;2.10;1.10;;;;;;;21.92;67.25;100140.41;5590352;31;35027;-66
2022/07/31 11:42:22;;;;;;;2.65;1.30;;;;;;;20.70;70.58;100124.78;5590743;31;34220;-66
2022/07/31 11:45:29;;;;;;;;;;;;;;;20.58;71.26;100137.47;5590422;31;32578;-68
2022/07/31 11:48:37;;;;;;;1.77;1.10;;;;;;;20.70;71.85;100132.06;5591075;31;35170;-67
2022/07/31 11:51:49;;;;;;;2.85;1.30;;;;;;;21.03;70.40;100144.81;5590666;31;34677;-67
2022/07/31 11:55:09;;;;;;;2.10;1.40;;;;;;;20.59;70.34;100141.81;5589718;31;33304;-69
2022/07/31 11:58:14;;;;;;;1.60;1.05;;;;;;;20.39;69.45;100127.91;5589957;31;32680;-68
2022/07/31 12:01:17;;;;;;;4.60;1.10;;;;;;;20.62;67.69;100127.84;5589561;31;32713;-68
2022/07/31 12:04:20;;;;;;;2.85;1.20;;;;;;;21.88;64.33;100142.78;5589785;31;34226;-68
2022/07/31 12:07:23;;;;;;;4.85;1.00;;;;;;;24.46;55.11;100129.16;5590486;31;34242;-68
2022/07/31 12:10:26;;;;;;;4.55;1.20;;;;;;;22.86;58.98;100130.31;5590575;31;34249;-69
2022/07/31 12:13:29;;;;;;;1.40;1.00;;;;;;;23.21;58.21;100140.69;5590421;31;35405;-69
2022/07/31 12:16:42;;;;;;;4.10;1.05;;;;;;;23.35;56.91;100137.31;5590798;31;34240;-68
2022/07/31 12:19:45;;;;;;;2.05;1.02;;;;;;;21.44;61.93;100141.00;5590464;31;34465;-70
2022/07/31 12:22:57;;;;;;;2.15;1.12;;;;;;;22.77;59.20;100145.37;5576506;31;34319;-68
2022/07/31 12:26:00;;;;;;;2.20;1.33;;;;;;;21.15;64.09;100134.84;5589707;31;34500;-69
2022/07/31 12:29:11;;;;;;;1.95;1.35;;;;;;;20.41;67.13;100139.28;5589373;31;33013;-68
2022/07/31 12:32:23;;;;;;;2.00;1.00;;;;;;;20.00;69.47;100134.84;5589056;31;34083;-69
2022/07/31 12:35:37;;;;;;;2.47;1.30;;;;;;;20.08;71.33;100147.97;5590065;31;34869;-67
2022/07/31 12:38:59;;;;;;;3.30;1.45;;;;;;;19.66;74.65;100154.50;5590321;31;34143;-67
2022/07/31 12:42:03;;;;;;;2.60;1.10;;;;;;;19.19;76.63;100140.12;5590178;31;35203;-69
2022/07/31 12:45:06;;;;;;;3.78;1.20;;;;;;;19.30;77.31;100158.97;5589607;31;33150;-69
2022/07/31 12:48:22;;;;;;;2.10;1.20;;;;;;;19.30;77.06;100156.28;5590210;31;34692;-69
2022/07/31 12:51:24;;;;;;;3.35;1.30;;;;;;;19.38;75.54;100155.13;5589341;31;32951;-67
2022/07/31 12:54:47;;;;;;;1.87;1.30;;;;;;;19.35;75.03;100160.97;5589904;31;35252;-69
2022/07/31 12:57:50;;;;;;;1.40;1.10;;;;;;;19.50;74.09;100150.62;5589384;31;33327;-68
2022/07/31 13:00:55;;;;;;;1.52;1.10;;;;;;;19.73;73.25;100161.44;5589478;31;32695;-68
2022/07/31 13:03:59;;;;;;;3.65;1.00;;;;;;;19.60;74.01;100156.28;5589229;31;33329;-66
2022/07/31 13:07:06;;;;;;;2.65;1.30;;;;;;;19.42;72.98;100154.44;5589399;31;34440;-66
2022/07/31 13:10:09;;;;;;;1.95;1.10;;;;;;;19.46;72.70;100152.16;5589790;31;35552;-68
2022/07/31 13:13:24;;;;;;;1.35;1.10;;;;;;;19.76;73.29;100162.81;5588836;31;34057;-67
2022/07/31 13:16:27;;;;;;;1.52;1.15;;;;;;;19.75;72.73;100166.59;5589052;31;32683;-69
2022/07/31 13:19:30;;;;;;;1.83;1.10;;;;;;;19.71;74.77;100162.69;5588905;31;35590;-71
2022/07/31 13:22:32;;;;;;;1.37;0.90;;;;;;;19.67;76.33;100169.59;5589402;31;34826;-68
2022/07/31 13:25:35;;;;;;;1.27;0.90;;;;;;;19.51;73.00;100171.91;5589717;31;34208;-70
2022/07/31 13:28:38;;;;;;;0.90;0.75;;;;;;;19.56;74.65;100157.75;5589808;31;34916;-68
2022/07/31 13:31:41;;;;;;;1.35;0.82;;;;;;;19.94;73.80;100168.12;5576223;31;34290;-68
2022/07/31 13:34:43;;;;;;;1.17;0.90;;;;;;;19.60;71.76;100155.44;5589466;31;34931;-72
2022/07/31 13:37:46;;;;;;;1.23;1.02;;;;;;;19.87;70.17;100151.25;5590012;31;34190;-68
2022/07/31 13:44:11;;;;;;;2.15;0.95;;;;;;;19.61;69.27;100152.50;5589644;31;34874;-68
2022/07/31 13:47:14;;;;;;;1.58;1.00;;;;;;;19.58;68.56;100158.38;5589559;31;34924;-69
2022/07/31 13:50:17;;;;;;;2.62;1.10;;;;;;;19.27;69.00;100169.34;5588742;31;32662;-70
2022/07/31 13:53:20;;;;;;;2.22;1.00;;;;;;;19.56;68.37;100165.03;5589838;31;34216;-70
2022/07/31 13:56:23;;;;;;;2.28;1.10;;;;;;;19.61;67.83;100168.66;5588708;31;34810;-67
2022/07/31 13:59:44;;;;;;;1.55;1.10;;;;;;;19.60;67.02;100183.19;5588789;31;34561;-69
2022/07/31 14:02:48;;;;;;;1.70;1.10;;;;;;;19.59;65.66;100173.47;5589562;31;34628;-69
2022/07/31 14:05:53;;;;;;;1.12;0.90;;;;;;;19.87;64.46;100183.56;5588369;31;33093;-67
2022/07/31 14:08:56;;;;;;;2.72;1.10;;;;;;;19.92;64.18;100167.53;5589387;31;35598;-70
2022/07/31 14:12:02;;;;;;;1.95;1.10;;;;;;;19.96;64.09;100187.53;5589243;31;34596;-68
2022/07/31 14:15:07;;;;;;;1.05;0.80;;;;;;;20.01;64.60;100178.75;5588377;31;32942;-69
2022/07/31 14:18:10;;;;;;;2.25;1.00;;;;;;;19.93;63.99;100178.06;5588432;31;32540;-69
2022/07/31 14:21:13;;;;;;;1.67;0.98;;;;;;;19.73;63.96;100180.28;5589550;31;34294;-69
2022/07/31 14:24:18;;;;;;;1.00;0.90;;;;;;;19.36;63.70;100176.91;5589295;31;34269;-68
2022/07/31 14:27:20;;;;;;;2.87;0.90;;;;;;;19.22;64.13;100170.03;5589594;31;34876;-66
2022/07/31 14:30:24;;;;;;;2.17;1.27;;;;;;;19.23;65.65;100166.31;5588929;31;34189;-70
2022/07/31 14:33:27;;;;;;;2.72;1.00;;;;;;;19.29;66.04;100176.16;5588288;31;33584;-68